createdAt,value
2022-12-14T00:01:49.210Z,4.28
2022-12-14T00:04:17.798Z,3.50
2022-12-14T00:06:45.166Z,3.15
2022-12-14T00:09:11.898Z,3.33
2022-12-14T00:11:38.640Z,3.78
2022-12-14T00:14:05.429Z,3.70
2022-12-14T00:16:33.288Z,4.20
2022-12-14T00:19:00.672Z,4.10
2022-12-14T00:21:27.635Z,3.20
2022-12-14T00:23:54.757Z,3.40
2022-12-14T00:26:23.425Z,3.58
2022-12-14T00:28:51.390Z,3.60
2022-12-14T00:31:21.554Z,3.20
2022-12-14T00:33:48.812Z,3.53
2022-12-14T00:36:15.533Z,4.30
2022-12-14T00:38:42.500Z,4.30
2022-12-14T00:41:09.577Z,4.03
2022-12-14T00:43:36.345Z,4.82
2022-12-14T00:46:03.265Z,3.88
2022-12-14T00:48:32.115Z,4.22
2022-12-14T00:50:59.243Z,3.92
2022-12-14T00:53:26.117Z,4.78
2022-12-14T00:55:52.998Z,4.32
2022-12-14T00:58:21.380Z,4.47
2022-12-14T01:00:48.708Z,4.45
2022-12-14T01:03:15.586Z,4.10
2022-12-14T01:05:49.185Z,4.47
2022-12-14T01:08:16.251Z,4.82
2022-12-14T01:10:43.044Z,4.20
2022-12-14T01:13:11.056Z,4.65
2022-12-14T01:15:37.961Z,3.47
2022-12-14T01:18:05.328Z,4.65
2022-12-14T01:20:32.296Z,4.00
2022-12-14T01:22:59.108Z,4.07
2022-12-14T01:25:25.949Z,3.80
2022-12-14T01:27:52.883Z,4.15
2022-12-14T01:30:19.839Z,4.10
2022-12-14T01:32:47.392Z,3.88
2022-12-14T01:35:14.710Z,4.20
2022-12-14T01:37:41.558Z,2.75
2022-12-14T01:40:08.808Z,5.15
2022-12-14T01:42:36.710Z,3.70
2022-12-14T01:45:03.844Z,4.03
2022-12-14T01:47:36.523Z,3.78
2022-12-14T01:50:08.845Z,3.45
2022-12-14T01:52:41.278Z,2.95
2022-12-14T01:55:20.177Z,3.88
2022-12-14T01:58:20.053Z,3.58
2022-12-14T02:00:46.851Z,3.03
2022-12-14T02:03:18.251Z,3.40
2022-12-14T02:05:47.973Z,3.55
2022-12-14T02:08:14.917Z,3.72
2022-12-14T02:10:42.164Z,2.88
2022-12-14T02:13:22.920Z,3.80
2022-12-14T02:15:50.403Z,3.08
2022-12-14T02:18:19.522Z,3.25
2022-12-14T02:21:02.346Z,3.63
2022-12-14T02:24:01.820Z,2.63
2022-12-14T02:26:50.596Z,3.17
2022-12-14T02:29:49.414Z,3.10
2022-12-14T02:32:34.432Z,3.60
2022-12-14T02:35:19.775Z,4.65
2022-12-14T02:38:21.929Z,3.78
2022-12-14T02:41:03.514Z,3.05
2022-12-14T02:43:54.638Z,4.38
2022-12-14T02:46:29.605Z,4.18
2022-12-14T02:48:58.094Z,3.42
2022-12-14T02:51:46.029Z,3.40
2022-12-14T02:54:17.038Z,4.07
2022-12-14T02:56:47.690Z,4.40
2022-12-14T02:59:14.710Z,4.82
2022-12-14T03:01:42.017Z,3.85
2022-12-14T03:04:14.217Z,3.38
2022-12-14T03:06:54.043Z,3.50
2022-12-14T03:09:20.740Z,3.92
2022-12-14T03:12:01.391Z,4.00
2022-12-14T03:14:31.930Z,3.65
2022-12-14T03:17:03.602Z,3.60
2022-12-14T03:19:37.721Z,4.07
2022-12-14T03:22:11.108Z,4.55
2022-12-14T03:25:06.541Z,3.03
2022-12-14T03:27:35.376Z,3.42
2022-12-14T03:30:05.373Z,2.75
2022-12-14T03:32:32.199Z,3.10
2022-12-14T03:35:02.881Z,3.40
2022-12-14T03:37:38.407Z,3.65
2022-12-14T03:40:09.610Z,3.60
2022-12-14T03:42:49.394Z,3.67
2022-12-14T03:45:28.159Z,3.58
2022-12-14T03:48:00.519Z,4.03
2022-12-14T03:50:33.530Z,4.93
2022-12-14T03:53:22.958Z,3.03
2022-12-14T03:56:23.367Z,3.10
2022-12-14T03:59:32.553Z,3.42
2022-12-14T04:02:09.708Z,2.70
2022-12-14T04:04:44.236Z,3.15
2022-12-14T04:07:11.040Z,3.15
2022-12-14T04:10:02.335Z,2.90
2022-12-14T04:12:53.128Z,3.67
2022-12-14T04:15:50.873Z,3.20
2022-12-14T04:18:50.520Z,3.63
2022-12-14T04:21:39.930Z,2.45
2022-12-14T04:24:59.078Z,3.67
2022-12-14T04:27:31.634Z,2.83
2022-12-14T04:29:59.296Z,3.23
2022-12-14T04:32:28.830Z,2.17
2022-12-14T04:35:03.614Z,2.78
2022-12-14T04:37:30.416Z,3.05
2022-12-14T04:40:24.653Z,2.50
2022-12-14T04:42:54.274Z,3.22
2022-12-14T04:45:25.049Z,3.88
2022-12-14T04:48:00.150Z,3.35
2022-12-14T04:50:31.855Z,2.10
2022-12-14T04:53:02.665Z,3.10
2022-12-14T04:55:39.929Z,4.05
2022-12-14T04:58:13.049Z,3.45
2022-12-14T05:01:19.184Z,3.20
2022-12-14T05:04:03.981Z,3.13
2022-12-14T05:06:56.057Z,3.92
2022-12-14T05:09:27.292Z,4.30
2022-12-14T05:12:19.507Z,3.40
2022-12-14T05:15:10.871Z,3.22
2022-12-14T05:17:38.266Z,4.53
2022-12-14T05:20:05.853Z,3.28
2022-12-14T05:22:32.648Z,3.55
2022-12-14T05:24:59.854Z,3.65
2022-12-14T05:27:26.554Z,3.92
2022-12-14T05:29:53.268Z,5.93
2022-12-14T05:32:20.423Z,6.68
2022-12-14T05:34:47.130Z,6.20
2022-12-14T05:37:18.191Z,5.93
2022-12-14T05:39:45.222Z,6.38
2022-12-14T05:42:11.989Z,6.18
2022-12-14T05:44:39.175Z,6.50
2022-12-14T05:47:06.062Z,6.47
2022-12-14T05:49:32.874Z,5.80
2022-12-14T05:51:59.704Z,6.32
2022-12-14T05:54:27.284Z,6.20
2022-12-14T05:56:54.114Z,6.50
2022-12-14T05:59:20.901Z,7.22
2022-12-14T06:01:49.610Z,8.00
2022-12-14T06:04:18.791Z,7.00
2022-12-14T06:06:45.695Z,6.20
2022-12-14T06:09:18.075Z,6.82
2022-12-14T06:11:45.323Z,4.80
2022-12-14T06:14:12.476Z,5.32
2022-12-14T06:16:43.959Z,6.65
2022-12-14T06:19:11.636Z,6.75
2022-12-14T06:21:39.820Z,7.35
2022-12-14T06:24:07.165Z,6.53
2022-12-14T06:26:36.846Z,8.32
2022-12-14T06:29:03.975Z,7.70
2022-12-14T06:31:31.423Z,6.97
2022-12-14T06:33:59.405Z,9.35
2022-12-14T06:36:34.013Z,7.65
2022-12-14T06:39:05.355Z,7.95
2022-12-14T06:41:32.144Z,7.10
2022-12-14T06:44:05.514Z,8.10
2022-12-14T06:46:32.363Z,8.90
2022-12-14T06:48:59.149Z,9.05
2022-12-14T06:51:26.159Z,9.30
2022-12-14T06:53:54.501Z,9.63
2022-12-14T06:56:22.170Z,11.68
2022-12-14T06:58:49.358Z,11.43
2022-12-14T07:01:21.252Z,13.20
2022-12-14T07:03:50.121Z,14.18
2022-12-14T07:06:17.634Z,17.83
2022-12-14T07:08:44.395Z,14.02
2022-12-14T07:11:12.671Z,17.15
2022-12-14T07:13:39.701Z,17.17
2022-12-14T07:16:07.099Z,15.23
2022-12-14T07:18:34.093Z,12.48
2022-12-14T07:21:01.706Z,13.15
2022-12-14T07:23:30.004Z,15.82
2022-12-14T07:26:09.450Z,14.52
2022-12-14T07:28:38.892Z,17.95
2022-12-14T07:31:13.475Z,18.63
2022-12-14T07:33:40.150Z,16.70
2022-12-14T07:36:08.738Z,15.90
2022-12-14T07:38:36.401Z,14.48
2022-12-14T07:41:22.046Z,19.52
2022-12-14T07:43:50.296Z,19.02
2022-12-14T07:46:19.122Z,17.80
2022-12-14T07:48:46.709Z,18.83
2022-12-14T07:51:14.327Z,17.05
2022-12-14T07:53:41.146Z,15.05
2022-12-14T07:56:12.397Z,13.13
2022-12-14T07:58:39.221Z,14.80
2022-12-14T08:01:16.003Z,13.60
2022-12-14T08:03:56.414Z,16.52
2022-12-14T08:06:24.442Z,14.55
2022-12-14T08:08:51.707Z,16.60
2022-12-14T08:11:18.831Z,15.48
2022-12-14T08:13:46.878Z,18.30
2022-12-14T08:16:14.996Z,17.45
2022-12-14T08:18:42.322Z,13.10
2022-12-14T08:21:09.865Z,14.93
2022-12-14T08:23:36.640Z,17.83
2022-12-14T08:26:04.651Z,15.80
2022-12-14T08:28:31.614Z,14.05
2022-12-14T08:30:58.593Z,14.38
2022-12-14T08:33:25.291Z,15.48
2022-12-14T08:35:52.027Z,20.27
2022-12-14T08:38:18.699Z,20.63
2022-12-14T08:40:45.491Z,15.85
2022-12-14T08:43:12.636Z,16.15
2022-12-14T08:45:39.338Z,11.93
2022-12-14T08:48:06.194Z,14.70
2022-12-14T08:50:32.964Z,12.65
2022-12-14T08:52:59.710Z,15.40
2022-12-14T08:55:30.180Z,13.00
2022-12-14T08:57:59.746Z,14.52
2022-12-14T09:00:26.600Z,13.45
2022-12-14T09:02:54.444Z,14.98
2022-12-14T09:05:21.298Z,13.75
2022-12-14T09:07:47.950Z,14.38
2022-12-14T09:10:15.312Z,13.30
2022-12-14T09:12:41.998Z,16.33
2022-12-14T09:15:11.917Z,16.27
2022-12-14T09:17:38.553Z,15.27
2022-12-14T09:20:06.300Z,12.20
2022-12-14T09:22:33.044Z,12.98
2022-12-14T09:24:59.718Z,15.23
2022-12-14T09:27:26.420Z,11.00
2022-12-14T09:29:53.354Z,13.45
2022-12-14T09:32:20.367Z,15.27
2022-12-14T09:34:47.101Z,16.67
2022-12-14T09:37:14.384Z,16.00
2022-12-14T09:39:41.125Z,16.83
2022-12-14T09:42:36.036Z,12.52
2022-12-14T09:45:05.941Z,11.57
2022-12-14T09:47:43.106Z,14.48
2022-12-14T09:50:17.342Z,13.25
2022-12-14T09:52:54.738Z,11.68
2022-12-14T09:55:33.698Z,17.90
2022-12-14T09:58:18.608Z,16.88
2022-12-14T10:01:03.398Z,16.50
2022-12-14T10:03:42.709Z,18.00
2022-12-14T10:06:34.305Z,15.60
2022-12-14T10:09:22.236Z,15.45
2022-12-14T10:11:55.763Z,13.90
2022-12-14T10:17:10.442Z,13.75
2022-12-14T10:19:53.751Z,12.32
2022-12-14T10:22:37.821Z,8.82
2022-12-14T10:25:07.190Z,10.82
2022-12-14T10:27:53.875Z,11.63
2022-12-14T10:30:23.677Z,13.13
2022-12-14T10:32:54.219Z,16.25
2022-12-14T10:35:53.552Z,13.38
2022-12-14T10:38:41.550Z,13.48
2022-12-14T10:41:36.399Z,12.48
2022-12-14T10:44:32.308Z,14.43
2022-12-14T10:47:23.898Z,13.82
2022-12-14T10:50:01.831Z,14.43
2022-12-14T10:52:34.654Z,12.80
2022-12-14T10:55:07.137Z,15.23
2022-12-14T10:57:33.867Z,13.93
2022-12-14T11:00:09.105Z,16.60
2022-12-14T11:02:50.032Z,15.20
2022-12-14T11:05:39.227Z,14.68
2022-12-14T11:08:09.255Z,18.02
2022-12-14T11:10:37.076Z,15.00
2022-12-14T11:13:06.810Z,12.73
2022-12-14T11:15:38.926Z,14.82
2022-12-14T11:18:18.105Z,15.88
2022-12-14T11:20:57.759Z,14.38
2022-12-14T11:23:29.672Z,13.50
2022-12-14T11:26:01.031Z,13.70
2022-12-14T11:28:50.750Z,15.80
2022-12-14T11:31:20.918Z,15.10
2022-12-14T11:33:50.433Z,15.90
2022-12-14T11:36:30.995Z,17.42
2022-12-14T11:38:59.765Z,12.90
2022-12-14T11:41:32.790Z,12.57
2022-12-14T11:44:07.186Z,12.85
2022-12-14T11:46:52.916Z,14.40
2022-12-14T11:49:24.552Z,17.27
2022-12-14T11:52:12.937Z,16.70
2022-12-14T11:54:50.145Z,15.10
2022-12-14T11:57:21.822Z,16.63
2022-12-14T12:00:18.459Z,14.32
2022-12-14T12:02:50.949Z,14.25
2022-12-14T12:05:20.153Z,15.50
2022-12-14T12:07:49.913Z,15.07
2022-12-14T12:10:21.456Z,11.90
2022-12-14T12:12:52.642Z,13.13
2022-12-14T12:15:36.407Z,12.40
2022-12-14T12:18:09.141Z,11.02
2022-12-14T12:20:39.223Z,12.85
2022-12-14T12:23:16.282Z,12.80
2022-12-14T12:25:43.261Z,13.98
2022-12-14T12:28:25.686Z,12.88
2022-12-14T12:30:54.897Z,11.13
2022-12-14T12:33:35.336Z,12.05
2022-12-14T12:36:04.483Z,10.30
2022-12-14T12:38:49.744Z,12.52
2022-12-14T12:41:29.595Z,13.82
2022-12-14T12:44:19.789Z,14.07
2022-12-14T12:47:27.376Z,13.43
2022-12-14T12:50:06.613Z,15.45
2022-12-14T12:53:03.560Z,20.55
2022-12-14T12:55:42.103Z,19.83
2022-12-14T13:01:32.785Z,15.73
2022-12-14T13:04:10.479Z,14.13
2022-12-14T13:06:41.307Z,14.82
2022-12-14T13:09:36.440Z,13.05
2022-12-14T13:12:05.096Z,9.40
2022-12-14T13:14:37.663Z,13.32
2022-12-14T13:17:06.369Z,14.13
2022-12-14T13:19:54.567Z,13.82
2022-12-14T13:22:29.339Z,15.90
2022-12-14T13:24:59.803Z,14.90
2022-12-14T13:27:49.826Z,13.57
2022-12-14T13:30:19.851Z,16.40
2022-12-14T13:33:09.045Z,15.35
2022-12-14T13:35:47.596Z,15.77
2022-12-14T13:38:20.410Z,10.10
2022-12-14T13:41:09.776Z,10.85
2022-12-14T13:44:18.450Z,14.15
2022-12-14T13:46:45.656Z,15.02
2022-12-14T13:49:19.475Z,14.85
2022-12-14T13:51:50.048Z,13.38
2022-12-14T13:54:38.515Z,17.63
2022-12-14T13:57:09.851Z,16.63
2022-12-14T13:59:42.260Z,13.05
2022-12-14T14:02:28.000Z,16.02
2022-12-14T14:05:18.720Z,19.35
2022-12-14T14:07:50.601Z,16.02
2022-12-14T14:10:34.358Z,20.30
2022-12-14T14:15:34.301Z,15.23
2022-12-14T14:18:23.301Z,17.42
2022-12-14T14:21:14.654Z,18.92
2022-12-14T14:24:20.938Z,18.90
2022-12-14T14:27:11.575Z,16.23
2022-12-14T14:29:45.126Z,20.65
2022-12-14T14:32:39.053Z,18.50
2022-12-14T14:35:25.540Z,15.63
2022-12-14T14:38:00.016Z,18.48
2022-12-14T14:40:58.307Z,18.40
2022-12-14T14:43:28.596Z,16.42
2022-12-14T14:45:56.458Z,17.02
2022-12-14T14:48:40.639Z,14.70
2022-12-14T14:51:16.193Z,16.08
2022-12-14T14:53:43.496Z,16.00
2022-12-14T14:56:34.070Z,18.08
2022-12-14T14:59:19.341Z,17.75
2022-12-14T15:01:58.093Z,16.92
2022-12-14T15:04:51.523Z,17.58
2022-12-14T15:07:38.743Z,17.95
2022-12-14T15:10:31.422Z,19.40
2022-12-14T15:13:08.891Z,16.70
2022-12-14T15:16:06.518Z,15.10
2022-12-14T15:18:33.348Z,11.70
2022-12-14T15:21:02.197Z,13.73
2022-12-14T15:23:40.953Z,15.55
2022-12-14T15:26:31.781Z,13.75
2022-12-14T15:29:00.685Z,16.23
2022-12-14T15:31:59.735Z,13.30
2022-12-14T15:34:27.149Z,15.50
2022-12-14T15:36:55.001Z,13.70
2022-12-14T15:39:28.642Z,17.90
2022-12-14T15:42:03.242Z,11.30
2022-12-14T15:44:30.059Z,14.30
2022-12-14T15:46:57.220Z,15.88
2022-12-14T15:49:24.228Z,15.65
2022-12-14T15:51:51.233Z,15.93
2022-12-14T15:54:19.924Z,16.27
2022-12-14T15:56:57.595Z,14.75
2022-12-14T15:59:35.248Z,12.90
2022-12-14T16:02:30.340Z,14.05
2022-12-14T16:05:01.303Z,15.55
2022-12-14T16:07:36.664Z,11.93
2022-12-14T16:10:04.842Z,13.23
2022-12-14T16:12:46.147Z,13.15
2022-12-14T16:15:24.080Z,13.43
2022-12-14T16:17:55.999Z,15.40
2022-12-14T16:20:30.275Z,13.60
2022-12-14T16:23:02.017Z,13.23
2022-12-14T16:25:30.313Z,11.15
2022-12-14T16:27:57.092Z,11.50
2022-12-14T16:30:32.644Z,8.85
2022-12-14T16:33:17.969Z,8.68
2022-12-14T16:35:46.292Z,8.90
2022-12-14T16:38:17.433Z,8.65
2022-12-14T16:40:53.795Z,10.95
2022-12-14T16:43:53.173Z,12.68
2022-12-14T16:46:20.092Z,12.02
2022-12-14T16:49:07.669Z,12.85
2022-12-14T16:52:05.880Z,11.57
2022-12-14T16:54:33.553Z,10.73
2022-12-14T16:57:03.353Z,9.23
2022-12-14T16:59:55.978Z,10.10
2022-12-14T17:02:31.627Z,9.88
2022-12-14T17:05:04.350Z,9.70
2022-12-14T17:07:31.592Z,11.07
2022-12-14T17:09:58.465Z,12.88
2022-12-14T17:12:25.717Z,14.43
2022-12-14T17:14:52.477Z,16.23
2022-12-14T17:17:23.558Z,16.23
2022-12-14T17:19:51.370Z,14.13
2022-12-14T17:22:23.162Z,11.43
2022-12-14T17:24:50.315Z,14.07
2022-12-14T17:27:17.577Z,12.43
2022-12-14T17:29:44.353Z,11.70
2022-12-14T17:32:11.957Z,15.45
2022-12-14T17:34:38.806Z,14.68
2022-12-14T17:37:18.246Z,11.93
2022-12-14T17:39:45.179Z,13.95
2022-12-14T17:42:13.248Z,11.85
2022-12-14T17:44:41.475Z,12.13
2022-12-14T17:47:11.457Z,10.68
2022-12-14T17:49:39.230Z,11.68
2022-12-14T17:52:07.259Z,9.68
2022-12-14T17:54:36.745Z,9.80
2022-12-14T17:57:05.621Z,11.88
2022-12-14T17:59:32.860Z,10.80
2022-12-14T18:01:59.974Z,9.43
2022-12-14T18:04:26.807Z,11.75
2022-12-14T18:06:53.506Z,12.05
2022-12-14T18:09:20.291Z,8.95
2022-12-14T18:12:14.333Z,9.18
2022-12-14T18:14:33.819Z,11.05
2022-12-14T18:17:00.967Z,14.88
2022-12-14T18:19:29.958Z,12.55
2022-12-14T18:21:57.141Z,11.52
2022-12-14T18:24:26.136Z,11.50
2022-12-14T18:26:53.088Z,10.23
2022-12-14T18:29:20.231Z,9.75
2022-12-14T18:31:49.672Z,9.48
2022-12-14T18:34:16.729Z,10.82
2022-12-14T18:36:43.525Z,11.35
2022-12-14T18:39:10.414Z,10.35
2022-12-14T18:41:37.769Z,11.45
2022-12-14T18:44:05.296Z,9.80
2022-12-14T18:46:36.046Z,12.13
2022-12-14T18:49:03.340Z,9.40
2022-12-14T18:51:30.113Z,8.88
2022-12-14T18:53:57.990Z,10.25
2022-12-14T18:56:26.073Z,9.38
2022-12-14T18:58:52.933Z,8.52
2022-12-14T19:01:21.729Z,7.65
2022-12-14T19:03:49.010Z,9.48
2022-12-14T19:09:11.281Z,7.75
2022-12-14T19:11:40.260Z,8.40
2022-12-14T19:14:08.469Z,8.30
2022-12-14T19:16:35.242Z,7.35
2022-12-14T19:19:01.989Z,6.15
2022-12-14T19:21:29.788Z,8.68
2022-12-14T19:24:00.038Z,7.20
2022-12-14T19:26:31.586Z,6.05
2022-12-14T19:28:58.779Z,8.25
2022-12-14T19:31:27.452Z,8.07
2022-12-14T19:33:54.396Z,7.20
2022-12-14T19:36:21.265Z,7.38
2022-12-14T19:38:49.538Z,5.85
2022-12-14T19:41:17.860Z,7.13
2022-12-14T19:43:44.647Z,5.70
2022-12-14T19:46:12.252Z,8.45
2022-12-14T19:48:39.258Z,7.10
2022-12-14T19:51:12.619Z,7.63
2022-12-14T19:53:40.299Z,4.35
2022-12-14T19:56:08.927Z,4.07
2022-12-14T19:58:35.777Z,4.07
2022-12-14T20:01:07.012Z,4.00
2022-12-14T20:03:34.767Z,3.03
2022-12-14T20:06:02.885Z,6.47
2022-12-14T20:08:30.243Z,3.00
2022-12-14T20:10:57.790Z,2.42
2022-12-14T20:13:25.577Z,3.67
2022-12-14T20:15:53.971Z,2.88
2022-12-14T20:18:21.449Z,2.60
2022-12-14T20:20:49.824Z,2.47
2022-12-14T20:23:17.963Z,2.50
2022-12-14T20:25:44.925Z,2.13
2022-12-14T20:28:11.694Z,1.67
2022-12-14T20:30:45.966Z,1.88
2022-12-14T20:33:13.143Z,1.90
2022-12-14T20:35:40.152Z,1.55
2022-12-14T20:38:06.932Z,2.60
2022-12-14T20:40:38.551Z,2.17
2022-12-14T20:43:06.835Z,2.05
2022-12-14T20:45:40.525Z,2.60
2022-12-14T20:48:07.549Z,1.65
2022-12-14T20:50:35.792Z,1.88
2022-12-14T20:53:04.209Z,2.30
2022-12-14T20:55:30.986Z,1.85
2022-12-14T20:57:57.870Z,2.78
2022-12-14T21:00:25.193Z,3.17
2022-12-14T21:02:52.188Z,2.10
2022-12-14T21:05:19.037Z,3.47
2022-12-14T21:07:45.799Z,2.40
2022-12-14T21:10:12.521Z,3.13
2022-12-14T21:12:39.184Z,2.75
2022-12-14T21:15:06.345Z,3.33
2022-12-14T21:17:33.694Z,2.38
2022-12-14T21:20:00.406Z,2.08
2022-12-14T21:22:27.948Z,3.40
2022-12-14T21:25:04.234Z,1.67
2022-12-14T21:27:32.669Z,1.85
2022-12-14T21:30:00.522Z,2.53
2022-12-14T21:32:27.531Z,1.25
2022-12-14T21:34:54.234Z,1.30
2022-12-14T21:37:21.091Z,1.05
2022-12-14T21:39:54.102Z,2.38
2022-12-14T21:42:23.292Z,3.25
2022-12-14T21:44:51.053Z,2.95
2022-12-14T21:47:19.876Z,2.10
2022-12-14T21:49:46.576Z,1.85
2022-12-14T21:52:15.052Z,1.70
2022-12-14T21:54:41.965Z,3.15
2022-12-14T21:57:31.578Z,1.88
2022-12-14T21:59:58.352Z,1.90
2022-12-14T22:02:25.458Z,2.20
2022-12-14T22:04:56.206Z,1.73
2022-12-14T22:07:30.336Z,2.15
2022-12-14T22:09:57.046Z,1.25
2022-12-14T22:12:23.730Z,1.38
2022-12-14T22:14:50.612Z,0.95
2022-12-14T22:17:17.380Z,1.48
2022-12-14T22:19:44.090Z,1.27
2022-12-14T22:22:14.985Z,2.80
2022-12-14T22:24:41.895Z,1.92
2022-12-14T22:27:12.663Z,3.22
2022-12-14T22:29:39.514Z,2.40
2022-12-14T22:32:07.013Z,2.17
2022-12-14T22:34:33.849Z,2.65
2022-12-14T22:37:00.582Z,4.22
2022-12-14T22:39:27.279Z,1.70
2022-12-14T22:41:54.083Z,3.42
2022-12-14T22:44:20.843Z,2.35
2022-12-14T22:46:47.487Z,3.10
2022-12-14T22:49:17.429Z,1.52
2022-12-14T22:51:44.170Z,2.63
2022-12-14T22:54:17.599Z,2.15
2022-12-14T22:56:46.464Z,2.38
2022-12-14T22:59:18.706Z,1.98
2022-12-14T23:01:49.984Z,1.40
2022-12-14T23:04:17.527Z,2.28
2022-12-14T23:06:44.433Z,2.53
2022-12-14T23:09:29.690Z,2.50
2022-12-14T23:12:18.362Z,1.38
2022-12-14T23:15:06.358Z,1.02
2022-12-14T23:17:51.609Z,1.55
2022-12-14T23:20:36.691Z,1.67
2022-12-14T23:23:24.864Z,2.15
2022-12-14T23:26:10.041Z,1.58
2022-12-14T23:28:55.195Z,1.23
2022-12-14T23:31:40.358Z,0.93
2022-12-14T23:34:25.479Z,1.50
2022-12-14T23:37:13.865Z,1.55
2022-12-14T23:40:03.113Z,1.65
2022-12-14T23:42:48.248Z,0.98
2022-12-14T23:45:33.174Z,1.17
2022-12-14T23:48:18.334Z,1.05
2022-12-14T23:51:03.580Z,1.70
2022-12-14T23:53:49.831Z,1.10
2022-12-14T23:56:36.056Z,2.30
2022-12-14T23:59:24.917Z,1.50
